sensor_id;sensor_type;location;lat;lon;timestamp;P1;durP1;ratioP1;P2;durP2;ratioP2
77202;SDS011;66327;50.096;8.498;2024-03-22T00:00:44;18.92;;;8.00;;
77202;SDS011;66327;50.096;8.498;2024-03-22T00:03:10;20.98;;;9.32;;
77202;SDS011;66327;50.096;8.498;2024-03-22T00:05:37;16.73;;;8.95;;
77202;SDS011;66327;50.096;8.498;2024-03-22T00:08:04;21.15;;;9.70;;
77202;SDS011;66327;50.096;8.498;2024-03-22T00:10:30;19.33;;;9.10;;
77202;SDS011;66327;50.096;8.498;2024-03-22T00:12:57;21.20;;;8.88;;
77202;SDS011;66327;50.096;8.498;2024-03-22T00:15:23;18.88;;;9.23;;
77202;SDS011;66327;50.096;8.498;2024-03-22T00:17:48;18.77;;;9.40;;
77202;SDS011;66327;50.096;8.498;2024-03-22T00:20:14;24.10;;;10.57;;
77202;SDS011;66327;50.096;8.498;2024-03-22T00:22:40;18.75;;;9.57;;
77202;SDS011;66327;50.096;8.498;2024-03-22T00:25:05;20.80;;;9.93;;
77202;SDS011;66327;50.096;8.498;2024-03-22T00:27:33;21.67;;;10.15;;
77202;SDS011;66327;50.096;8.498;2024-03-22T00:29:58;31.42;;;11.02;;
77202;SDS011;66327;50.096;8.498;2024-03-22T00:32:25;21.17;;;9.10;;
77202;SDS011;66327;50.096;8.498;2024-03-22T00:34:50;21.63;;;10.30;;
77202;SDS011;66327;50.096;8.498;2024-03-22T00:37:17;22.35;;;9.60;;
77202;SDS011;66327;50.096;8.498;2024-03-22T00:39:43;23.27;;;10.43;;
77202;SDS011;66327;50.096;8.498;2024-03-22T00:42:10;22.77;;;10.25;;
77202;SDS011;66327;50.096;8.498;2024-03-22T00:44:37;21.85;;;10.90;;
77202;SDS011;66327;50.096;8.498;2024-03-22T00:47:04;22.23;;;9.48;;
77202;SDS011;66327;50.096;8.498;2024-03-22T00:49:31;23.35;;;11.07;;
77202;SDS011;66327;50.096;8.498;2024-03-22T00:51:57;24.92;;;10.95;;
77202;SDS011;66327;50.096;8.498;2024-03-22T00:54:24;21.98;;;9.32;;
77202;SDS011;66327;50.096;8.498;2024-03-22T00:56:49;21.10;;;9.48;;
77202;SDS011;66327;50.096;8.498;2024-03-22T00:59:14;21.20;;;10.68;;
77202;SDS011;66327;50.096;8.498;2024-03-22T01:01:40;21.98;;;9.82;;
77202;SDS011;66327;50.096;8.498;2024-03-22T01:04:06;22.65;;;10.20;;
77202;SDS011;66327;50.096;8.498;2024-03-22T01:06:35;23.83;;;10.50;;
77202;SDS011;66327;50.096;8.498;2024-03-22T01:09:00;21.17;;;10.52;;
77202;SDS011;66327;50.096;8.498;2024-03-22T01:11:29;21.25;;;9.18;;
77202;SDS011;66327;50.096;8.498;2024-03-22T01:13:54;19.77;;;8.90;;
77202;SDS011;66327;50.096;8.498;2024-03-22T01:16:19;20.67;;;9.52;;
77202;SDS011;66327;50.096;8.498;2024-03-22T01:18:45;18.95;;;9.77;;
77202;SDS011;66327;50.096;8.498;2024-03-22T01:21:11;20.38;;;9.05;;
77202;SDS011;66327;50.096;8.498;2024-03-22T01:23:36;23.40;;;9.02;;
77202;SDS011;66327;50.096;8.498;2024-03-22T01:26:02;19.65;;;8.13;;
77202;SDS011;66327;50.096;8.498;2024-03-22T01:28:29;22.63;;;9.52;;
77202;SDS011;66327;50.096;8.498;2024-03-22T01:30:56;19.23;;;8.60;;
77202;SDS011;66327;50.096;8.498;2024-03-22T01:33:21;19.65;;;9.55;;
77202;SDS011;66327;50.096;8.498;2024-03-22T01:35:49;22.17;;;8.95;;
77202;SDS011;66327;50.096;8.498;2024-03-22T01:38:25;17.55;;;7.93;;
77202;SDS011;66327;50.096;8.498;2024-03-22T01:40:51;23.20;;;9.70;;
77202;SDS011;66327;50.096;8.498;2024-03-22T01:43:17;24.52;;;9.80;;
77202;SDS011;66327;50.096;8.498;2024-03-22T01:45:42;21.45;;;9.63;;
77202;SDS011;66327;50.096;8.498;2024-03-22T01:48:08;22.98;;;10.35;;
77202;SDS011;66327;50.096;8.498;2024-03-22T01:50:35;22.48;;;9.73;;
77202;SDS011;66327;50.096;8.498;2024-03-22T01:53:01;21.02;;;9.80;;
77202;SDS011;66327;50.096;8.498;2024-03-22T01:55:28;20.98;;;9.52;;
77202;SDS011;66327;50.096;8.498;2024-03-22T01:57:54;21.95;;;9.65;;
77202;SDS011;66327;50.096;8.498;2024-03-22T02:00:22;22.27;;;9.18;;
77202;SDS011;66327;50.096;8.498;2024-03-22T02:02:49;22.10;;;9.45;;
77202;SDS011;66327;50.096;8.498;2024-03-22T02:05:15;23.40;;;9.55;;
77202;SDS011;66327;50.096;8.498;2024-03-22T02:07:41;20.85;;;9.88;;
77202;SDS011;66327;50.096;8.498;2024-03-22T02:10:07;21.60;;;9.60;;
77202;SDS011;66327;50.096;8.498;2024-03-22T02:12:37;21.15;;;9.35;;
77202;SDS011;66327;50.096;8.498;2024-03-22T02:15:04;19.52;;;8.65;;
77202;SDS011;66327;50.096;8.498;2024-03-22T02:17:31;20.88;;;9.75;;
77202;SDS011;66327;50.096;8.498;2024-03-22T02:19:57;18.73;;;8.73;;
77202;SDS011;66327;50.096;8.498;2024-03-22T02:22:23;18.15;;;8.68;;
77202;SDS011;66327;50.096;8.498;2024-03-22T02:24:50;22.83;;;9.88;;
77202;SDS011;66327;50.096;8.498;2024-03-22T02:27:17;18.92;;;8.25;;
77202;SDS011;66327;50.096;8.498;2024-03-22T02:29:45;20.13;;;8.10;;
77202;SDS011;66327;50.096;8.498;2024-03-22T02:32:12;18.95;;;8.40;;
77202;SDS011;66327;50.096;8.498;2024-03-22T02:34:40;22.45;;;9.32;;
77202;SDS011;66327;50.096;8.498;2024-03-22T02:37:06;22.42;;;9.18;;
77202;SDS011;66327;50.096;8.498;2024-03-22T02:39:32;19.27;;;8.25;;
77202;SDS011;66327;50.096;8.498;2024-03-22T02:41:57;20.42;;;8.68;;
77202;SDS011;66327;50.096;8.498;2024-03-22T02:44:23;18.30;;;8.38;;
77202;SDS011;66327;50.096;8.498;2024-03-22T02:46:49;21.63;;;8.85;;
77202;SDS011;66327;50.096;8.498;2024-03-22T02:49:16;20.17;;;9.07;;
77202;SDS011;66327;50.096;8.498;2024-03-22T02:51:41;22.35;;;9.25;;
77202;SDS011;66327;50.096;8.498;2024-03-22T02:54:07;18.75;;;8.60;;
77202;SDS011;66327;50.096;8.498;2024-03-22T02:56:32;18.70;;;8.27;;
77202;SDS011;66327;50.096;8.498;2024-03-22T02:58:58;20.02;;;8.43;;
77202;SDS011;66327;50.096;8.498;2024-03-22T03:01:24;19.70;;;8.38;;
77202;SDS011;66327;50.096;8.498;2024-03-22T03:03:51;19.98;;;8.20;;
77202;SDS011;66327;50.096;8.498;2024-03-22T03:06:17;19.70;;;9.27;;
77202;SDS011;66327;50.096;8.498;2024-03-22T03:08:46;24.65;;;8.75;;
77202;SDS011;66327;50.096;8.498;2024-03-22T03:11:16;20.60;;;9.18;;
77202;SDS011;66327;50.096;8.498;2024-03-22T03:13:41;18.73;;;7.75;;
77202;SDS011;66327;50.096;8.498;2024-03-22T03:16:08;21.35;;;8.93;;
77202;SDS011;66327;50.096;8.498;2024-03-22T03:18:34;22.08;;;9.20;;
77202;SDS011;66327;50.096;8.498;2024-03-22T03:21:01;20.77;;;8.95;;
77202;SDS011;66327;50.096;8.498;2024-03-22T03:23:28;22.92;;;9.75;;
77202;SDS011;66327;50.096;8.498;2024-03-22T03:25:54;18.70;;;8.82;;
77202;SDS011;66327;50.096;8.498;2024-03-22T03:28:21;21.95;;;8.52;;
77202;SDS011;66327;50.096;8.498;2024-03-22T03:30:46;21.75;;;8.70;;
77202;SDS011;66327;50.096;8.498;2024-03-22T03:33:13;20.45;;;9.15;;
77202;SDS011;66327;50.096;8.498;2024-03-22T03:35:39;18.45;;;7.63;;
77202;SDS011;66327;50.096;8.498;2024-03-22T03:38:06;20.73;;;8.38;;
77202;SDS011;66327;50.096;8.498;2024-03-22T03:40:33;19.00;;;8.48;;
77202;SDS011;66327;50.096;8.498;2024-03-22T03:42:59;20.60;;;8.48;;
77202;SDS011;66327;50.096;8.498;2024-03-22T03:45:26;22.48;;;9.63;;
77202;SDS011;66327;50.096;8.498;2024-03-22T03:47:53;19.55;;;8.30;;
77202;SDS011;66327;50.096;8.498;2024-03-22T03:50:19;20.85;;;9.57;;
77202;SDS011;66327;50.096;8.498;2024-03-22T03:52:46;20.08;;;8.15;;
77202;SDS011;66327;50.096;8.498;2024-03-22T03:55:11;20.90;;;8.77;;
77202;SDS011;66327;50.096;8.498;2024-03-22T03:57:38;21.33;;;8.50;;
77202;SDS011;66327;50.096;8.498;2024-03-22T04:00:03;19.05;;;9.23;;
77202;SDS011;66327;50.096;8.498;2024-03-22T04:02:30;20.33;;;8.18;;
77202;SDS011;66327;50.096;8.498;2024-03-22T04:04:55;19.02;;;8.88;;
77202;SDS011;66327;50.096;8.498;2024-03-22T04:07:22;18.67;;;8.13;;
77202;SDS011;66327;50.096;8.498;2024-03-22T04:09:49;23.02;;;9.43;;
77202;SDS011;66327;50.096;8.498;2024-03-22T04:12:15;18.60;;;8.10;;
77202;SDS011;66327;50.096;8.498;2024-03-22T04:14:42;20.45;;;7.93;;
77202;SDS011;66327;50.096;8.498;2024-03-22T04:17:08;17.42;;;7.68;;
77202;SDS011;66327;50.096;8.498;2024-03-22T04:19:34;15.38;;;6.80;;
77202;SDS011;66327;50.096;8.498;2024-03-22T04:22:00;17.42;;;7.55;;
77202;SDS011;66327;50.096;8.498;2024-03-22T04:24:27;20.52;;;8.35;;
77202;SDS011;66327;50.096;8.498;2024-03-22T04:26:53;17.45;;;8.02;;
77202;SDS011;66327;50.096;8.498;2024-03-22T04:29:18;23.55;;;10.23;;
77202;SDS011;66327;50.096;8.498;2024-03-22T04:31:46;19.10;;;9.18;;
77202;SDS011;66327;50.096;8.498;2024-03-22T04:34:11;22.02;;;9.52;;
77202;SDS011;66327;50.096;8.498;2024-03-22T04:36:36;24.15;;;9.13;;
77202;SDS011;66327;50.096;8.498;2024-03-22T04:39:02;21.35;;;9.07;;
77202;SDS011;66327;50.096;8.498;2024-03-22T04:41:29;22.88;;;9.82;;
77202;SDS011;66327;50.096;8.498;2024-03-22T04:43:54;21.92;;;9.75;;
77202;SDS011;66327;50.096;8.498;2024-03-22T04:46:19;19.23;;;10.05;;
77202;SDS011;66327;50.096;8.498;2024-03-22T04:48:45;17.73;;;8.23;;
77202;SDS011;66327;50.096;8.498;2024-03-22T04:51:10;21.60;;;10.02;;
77202;SDS011;66327;50.096;8.498;2024-03-22T04:53:36;17.75;;;8.65;;
77202;SDS011;66327;50.096;8.498;2024-03-22T04:56:01;20.17;;;8.25;;
77202;SDS011;66327;50.096;8.498;2024-03-22T04:58:28;20.40;;;8.90;;
77202;SDS011;66327;50.096;8.498;2024-03-22T05:00:57;20.95;;;9.20;;
77202;SDS011;66327;50.096;8.498;2024-03-22T05:03:23;23.08;;;9.10;;
77202;SDS011;66327;50.096;8.498;2024-03-22T05:05:49;18.80;;;9.13;;
77202;SDS011;66327;50.096;8.498;2024-03-22T05:08:15;21.88;;;9.20;;
77202;SDS011;66327;50.096;8.498;2024-03-22T05:10:40;24.05;;;9.57;;
77202;SDS011;66327;50.096;8.498;2024-03-22T05:13:06;21.48;;;8.80;;
77202;SDS011;66327;50.096;8.498;2024-03-22T05:15:31;23.50;;;9.20;;
77202;SDS011;66327;50.096;8.498;2024-03-22T05:17:57;20.33;;;8.63;;
77202;SDS011;66327;50.096;8.498;2024-03-22T05:20:23;19.58;;;9.18;;
77202;SDS011;66327;50.096;8.498;2024-03-22T05:22:49;21.20;;;10.02;;
77202;SDS011;66327;50.096;8.498;2024-03-22T05:25:15;16.73;;;8.70;;
77202;SDS011;66327;50.096;8.498;2024-03-22T05:27:41;19.13;;;9.90;;
77202;SDS011;66327;50.096;8.498;2024-03-22T05:30:10;22.30;;;9.15;;
77202;SDS011;66327;50.096;8.498;2024-03-22T05:32:36;19.98;;;9.00;;
77202;SDS011;66327;50.096;8.498;2024-03-22T05:35:01;21.27;;;9.45;;
77202;SDS011;66327;50.096;8.498;2024-03-22T05:37:26;19.20;;;8.82;;
77202;SDS011;66327;50.096;8.498;2024-03-22T05:39:52;22.70;;;9.02;;
77202;SDS011;66327;50.096;8.498;2024-03-22T05:42:17;22.55;;;9.25;;
77202;SDS011;66327;50.096;8.498;2024-03-22T05:44:44;22.45;;;9.65;;
77202;SDS011;66327;50.096;8.498;2024-03-22T05:47:10;20.05;;;9.30;;
77202;SDS011;66327;50.096;8.498;2024-03-22T05:49:37;21.42;;;8.90;;
77202;SDS011;66327;50.096;8.498;2024-03-22T05:52:02;22.63;;;9.65;;
77202;SDS011;66327;50.096;8.498;2024-03-22T05:54:28;20.35;;;9.23;;
77202;SDS011;66327;50.096;8.498;2024-03-22T05:56:55;22.75;;;9.93;;
77202;SDS011;66327;50.096;8.498;2024-03-22T05:59:20;23.67;;;9.88;;
77202;SDS011;66327;50.096;8.498;2024-03-22T06:01:46;24.15;;;9.43;;
77202;SDS011;66327;50.096;8.498;2024-03-22T06:04:11;22.52;;;10.10;;
77202;SDS011;66327;50.096;8.498;2024-03-22T06:06:36;22.05;;;9.05;;
77202;SDS011;66327;50.096;8.498;2024-03-22T06:09:03;20.63;;;10.07;;
77202;SDS011;66327;50.096;8.498;2024-03-22T06:11:32;24.95;;;9.43;;
77202;SDS011;66327;50.096;8.498;2024-03-22T06:13:57;20.58;;;8.40;;
77202;SDS011;66327;50.096;8.498;2024-03-22T06:16:23;19.85;;;8.70;;
77202;SDS011;66327;50.096;8.498;2024-03-22T06:18:48;23.05;;;8.40;;
77202;SDS011;66327;50.096;8.498;2024-03-22T06:21:13;19.85;;;8.73;;
77202;SDS011;66327;50.096;8.498;2024-03-22T06:23:50;17.77;;;7.28;;
77202;SDS011;66327;50.096;8.498;2024-03-22T06:26:18;19.90;;;9.52;;
77202;SDS011;66327;50.096;8.498;2024-03-22T06:28:44;23.67;;;9.50;;
77202;SDS011;66327;50.096;8.498;2024-03-22T06:31:09;21.83;;;9.63;;
77202;SDS011;66327;50.096;8.498;2024-03-22T06:33:35;21.85;;;8.50;;
77202;SDS011;66327;50.096;8.498;2024-03-22T06:36:00;20.95;;;8.98;;
77202;SDS011;66327;50.096;8.498;2024-03-22T06:38:26;21.23;;;9.25;;
77202;SDS011;66327;50.096;8.498;2024-03-22T06:40:51;19.80;;;8.98;;
77202;SDS011;66327;50.096;8.498;2024-03-22T06:43:17;18.92;;;8.15;;
77202;SDS011;66327;50.096;8.498;2024-03-22T06:45:42;18.27;;;7.88;;
77202;SDS011;66327;50.096;8.498;2024-03-22T06:48:08;18.75;;;9.20;;
77202;SDS011;66327;50.096;8.498;2024-03-22T06:50:33;24.17;;;9.25;;
77202;SDS011;66327;50.096;8.498;2024-03-22T06:52:58;18.48;;;8.90;;
77202;SDS011;66327;50.096;8.498;2024-03-22T06:55:24;23.30;;;9.38;;
77202;SDS011;66327;50.096;8.498;2024-03-22T06:57:49;19.60;;;8.50;;
77202;SDS011;66327;50.096;8.498;2024-03-22T07:00:16;21.55;;;9.52;;
77202;SDS011;66327;50.096;8.498;2024-03-22T07:02:42;21.48;;;9.00;;
77202;SDS011;66327;50.096;8.498;2024-03-22T07:05:08;20.70;;;9.52;;
77202;SDS011;66327;50.096;8.498;2024-03-22T07:07:37;20.60;;;9.05;;
77202;SDS011;66327;50.096;8.498;2024-03-22T07:10:03;19.80;;;9.27;;
77202;SDS011;66327;50.096;8.498;2024-03-22T07:12:31;23.33;;;9.52;;
77202;SDS011;66327;50.096;8.498;2024-03-22T07:14:59;19.10;;;9.48;;
77202;SDS011;66327;50.096;8.498;2024-03-22T07:17:25;17.75;;;8.55;;
77202;SDS011;66327;50.096;8.498;2024-03-22T07:19:51;18.80;;;8.55;;
77202;SDS011;66327;50.096;8.498;2024-03-22T07:22:17;18.58;;;8.45;;
77202;SDS011;66327;50.096;8.498;2024-03-22T07:24:43;19.33;;;8.55;;
77202;SDS011;66327;50.096;8.498;2024-03-22T07:27:10;20.60;;;9.52;;
77202;SDS011;66327;50.096;8.498;2024-03-22T07:29:36;22.88;;;9.27;;
77202;SDS011;66327;50.096;8.498;2024-03-22T07:32:01;16.70;;;8.55;;
77202;SDS011;66327;50.096;8.498;2024-03-22T07:34:29;22.30;;;9.45;;
77202;SDS011;66327;50.096;8.498;2024-03-22T07:36:54;20.88;;;8.82;;
77202;SDS011;66327;50.096;8.498;2024-03-22T07:39:20;18.50;;;9.30;;
77202;SDS011;66327;50.096;8.498;2024-03-22T07:41:46;16.92;;;9.13;;
77202;SDS011;66327;50.096;8.498;2024-03-22T07:44:11;19.83;;;9.88;;
77202;SDS011;66327;50.096;8.498;2024-03-22T07:46:37;21.67;;;8.80;;
77202;SDS011;66327;50.096;8.498;2024-03-22T07:49:03;20.73;;;9.18;;
77202;SDS011;66327;50.096;8.498;2024-03-22T07:51:29;18.75;;;8.55;;
77202;SDS011;66327;50.096;8.498;2024-03-22T07:53:55;15.55;;;7.78;;
77202;SDS011;66327;50.096;8.498;2024-03-22T07:56:21;18.55;;;8.68;;
77202;SDS011;66327;50.096;8.498;2024-03-22T07:58:46;17.98;;;9.07;;
77202;SDS011;66327;50.096;8.498;2024-03-22T08:01:12;19.67;;;8.35;;
77202;SDS011;66327;50.096;8.498;2024-03-22T08:03:37;20.20;;;8.95;;
77202;SDS011;66327;50.096;8.498;2024-03-22T08:06:03;17.75;;;8.73;;
77202;SDS011;66327;50.096;8.498;2024-03-22T08:08:28;21.92;;;9.00;;
77202;SDS011;66327;50.096;8.498;2024-03-22T08:10:54;15.73;;;8.38;;
77202;SDS011;66327;50.096;8.498;2024-03-22T08:13:20;15.50;;;7.32;;
77202;SDS011;66327;50.096;8.498;2024-03-22T08:15:45;20.65;;;8.85;;
77202;SDS011;66327;50.096;8.498;2024-03-22T08:18:11;17.70;;;7.95;;
77202;SDS011;66327;50.096;8.498;2024-03-22T08:20:37;18.38;;;8.73;;
77202;SDS011;66327;50.096;8.498;2024-03-22T08:23:04;18.40;;;8.05;;
77202;SDS011;66327;50.096;8.498;2024-03-22T08:25:29;15.57;;;7.10;;
77202;SDS011;66327;50.096;8.498;2024-03-22T08:27:55;17.63;;;8.55;;
77202;SDS011;66327;50.096;8.498;2024-03-22T08:30:21;15.93;;;7.88;;
77202;SDS011;66327;50.096;8.498;2024-03-22T08:32:46;18.60;;;8.00;;
77202;SDS011;66327;50.096;8.498;2024-03-22T08:35:12;18.23;;;7.95;;
77202;SDS011;66327;50.096;8.498;2024-03-22T08:37:37;17.25;;;7.53;;
77202;SDS011;66327;50.096;8.498;2024-03-22T08:40:03;19.73;;;7.13;;
77202;SDS011;66327;50.096;8.498;2024-03-22T08:42:29;16.35;;;7.40;;
77202;SDS011;66327;50.096;8.498;2024-03-22T08:44:55;17.77;;;7.22;;
77202;SDS011;66327;50.096;8.498;2024-03-22T08:47:20;16.48;;;7.70;;
77202;SDS011;66327;50.096;8.498;2024-03-22T08:49:46;14.40;;;6.38;;
77202;SDS011;66327;50.096;8.498;2024-03-22T08:52:12;14.63;;;5.97;;
77202;SDS011;66327;50.096;8.498;2024-03-22T08:54:38;18.90;;;7.43;;
77202;SDS011;66327;50.096;8.498;2024-03-22T08:57:03;14.45;;;6.40;;
77202;SDS011;66327;50.096;8.498;2024-03-22T08:59:29;16.05;;;7.10;;
77202;SDS011;66327;50.096;8.498;2024-03-22T09:01:54;14.93;;;6.28;;
77202;SDS011;66327;50.096;8.498;2024-03-22T09:04:20;14.20;;;6.45;;
77202;SDS011;66327;50.096;8.498;2024-03-22T09:06:46;14.82;;;7.18;;
77202;SDS011;66327;50.096;8.498;2024-03-22T09:09:12;14.68;;;6.88;;
77202;SDS011;66327;50.096;8.498;2024-03-22T09:11:37;8.60;;;3.60;;
77202;SDS011;66327;50.096;8.498;2024-03-22T09:14:04;13.35;;;6.15;;
77202;SDS011;66327;50.096;8.498;2024-03-22T09:16:30;11.88;;;5.45;;
77202;SDS011;66327;50.096;8.498;2024-03-22T09:18:57;13.95;;;6.55;;
77202;SDS011;66327;50.096;8.498;2024-03-22T09:21:23;16.02;;;7.53;;
77202;SDS011;66327;50.096;8.498;2024-03-22T09:23:49;13.85;;;6.10;;
77202;SDS011;66327;50.096;8.498;2024-03-22T09:26:15;12.13;;;5.90;;
77202;SDS011;66327;50.096;8.498;2024-03-22T09:28:40;15.23;;;5.80;;
77202;SDS011;66327;50.096;8.498;2024-03-22T09:31:07;13.05;;;6.47;;
77202;SDS011;66327;50.096;8.498;2024-03-22T09:33:36;11.25;;;5.45;;
77202;SDS011;66327;50.096;8.498;2024-03-22T09:36:02;11.88;;;5.20;;
77202;SDS011;66327;50.096;8.498;2024-03-22T09:38:27;12.73;;;6.20;;
77202;SDS011;66327;50.096;8.498;2024-03-22T09:40:53;11.70;;;4.55;;
77202;SDS011;66327;50.096;8.498;2024-03-22T09:43:22;16.23;;;5.60;;
77202;SDS011;66327;50.096;8.498;2024-03-22T09:45:48;13.98;;;6.20;;
77202;SDS011;66327;50.096;8.498;2024-03-22T09:48:18;20.70;;;6.00;;
77202;SDS011;66327;50.096;8.498;2024-03-22T09:50:44;11.43;;;5.82;;
77202;SDS011;66327;50.096;8.498;2024-03-22T09:53:11;12.00;;;6.10;;
77202;SDS011;66327;50.096;8.498;2024-03-22T09:55:37;12.25;;;5.75;;
77202;SDS011;66327;50.096;8.498;2024-03-22T09:58:05;12.27;;;5.68;;
77202;SDS011;66327;50.096;8.498;2024-03-22T10:00:30;10.05;;;4.82;;
77202;SDS011;66327;50.096;8.498;2024-03-22T10:02:56;11.13;;;6.10;;
77202;SDS011;66327;50.096;8.498;2024-03-22T10:05:23;9.80;;;5.25;;
77202;SDS011;66327;50.096;8.498;2024-03-22T10:07:49;10.82;;;5.53;;
77202;SDS011;66327;50.096;8.498;2024-03-22T10:10:15;10.27;;;4.75;;
77202;SDS011;66327;50.096;8.498;2024-03-22T10:12:41;9.57;;;4.97;;
77202;SDS011;66327;50.096;8.498;2024-03-22T10:15:06;11.88;;;5.43;;
77202;SDS011;66327;50.096;8.498;2024-03-22T10:17:37;11.93;;;6.13;;
77202;SDS011;66327;50.096;8.498;2024-03-22T10:20:12;14.10;;;6.47;;
77202;SDS011;66327;50.096;8.498;2024-03-22T10:22:47;9.90;;;5.00;;
77202;SDS011;66327;50.096;8.498;2024-03-22T10:25:13;12.40;;;6.18;;
77202;SDS011;66327;50.096;8.498;2024-03-22T10:27:42;10.27;;;5.40;;
77202;SDS011;66327;50.096;8.498;2024-03-22T10:30:08;11.35;;;5.15;;
77202;SDS011;66327;50.096;8.498;2024-03-22T10:32:35;10.55;;;5.85;;
77202;SDS011;66327;50.096;8.498;2024-03-22T10:35:02;10.48;;;5.60;;
77202;SDS011;66327;50.096;8.498;2024-03-22T10:37:32;10.73;;;5.35;;
77202;SDS011;66327;50.096;8.498;2024-03-22T10:39:57;9.75;;;5.18;;
77202;SDS011;66327;50.096;8.498;2024-03-22T10:42:23;8.95;;;5.60;;
77202;SDS011;66327;50.096;8.498;2024-03-22T10:44:49;10.88;;;5.90;;
77202;SDS011;66327;50.096;8.498;2024-03-22T10:47:14;6.85;;;4.18;;
77202;SDS011;66327;50.096;8.498;2024-03-22T10:49:42;10.75;;;5.47;;
77202;SDS011;66327;50.096;8.498;2024-03-22T10:52:08;8.50;;;5.00;;
77202;SDS011;66327;50.096;8.498;2024-03-22T10:54:36;11.02;;;5.97;;
77202;SDS011;66327;50.096;8.498;2024-03-22T10:57:04;12.82;;;5.80;;
77202;SDS011;66327;50.096;8.498;2024-03-22T10:59:33;8.70;;;4.93;;
77202;SDS011;66327;50.096;8.498;2024-03-22T11:02:02;10.55;;;6.35;;
77202;SDS011;66327;50.096;8.498;2024-03-22T11:04:29;12.48;;;5.60;;
77202;SDS011;66327;50.096;8.498;2024-03-22T11:06:56;9.95;;;5.35;;
77202;SDS011;66327;50.096;8.498;2024-03-22T11:09:23;13.27;;;5.78;;
77202;SDS011;66327;50.096;8.498;2024-03-22T11:11:48;11.20;;;6.13;;
77202;SDS011;66327;50.096;8.498;2024-03-22T11:14:16;12.60;;;5.85;;
77202;SDS011;66327;50.096;8.498;2024-03-22T11:16:44;11.23;;;5.60;;
77202;SDS011;66327;50.096;8.498;2024-03-22T11:19:10;10.30;;;5.40;;
77202;SDS011;66327;50.096;8.498;2024-03-22T11:21:38;11.02;;;5.45;;
77202;SDS011;66327;50.096;8.498;2024-03-22T11:24:05;9.88;;;5.15;;
77202;SDS011;66327;50.096;8.498;2024-03-22T11:28:59;7.68;;;4.55;;
77202;SDS011;66327;50.096;8.498;2024-03-22T11:31:25;5.15;;;3.03;;
77202;SDS011;66327;50.096;8.498;2024-03-22T11:36:18;8.80;;;4.90;;
77202;SDS011;66327;50.096;8.498;2024-03-22T11:38:44;10.85;;;4.47;;
77202;SDS011;66327;50.096;8.498;2024-03-22T11:41:09;9.38;;;4.47;;
77202;SDS011;66327;50.096;8.498;2024-03-22T11:43:35;10.35;;;5.63;;
77202;SDS011;66327;50.096;8.498;2024-03-22T11:46:00;9.35;;;4.65;;
77202;SDS011;66327;50.096;8.498;2024-03-22T11:48:27;10.50;;;5.97;;
77202;SDS011;66327;50.096;8.498;2024-03-22T11:50:52;9.88;;;4.72;;
77202;SDS011;66327;50.096;8.498;2024-03-22T11:53:17;7.43;;;4.47;;
77202;SDS011;66327;50.096;8.498;2024-03-22T11:55:43;9.07;;;4.93;;
77202;SDS011;66327;50.096;8.498;2024-03-22T11:58:09;11.13;;;5.13;;
77202;SDS011;66327;50.096;8.498;2024-03-22T12:00:34;10.32;;;5.18;;
77202;SDS011;66327;50.096;8.498;2024-03-22T12:03:00;10.73;;;5.47;;
77202;SDS011;66327;50.096;8.498;2024-03-22T12:05:25;8.60;;;4.72;;
77202;SDS011;66327;50.096;8.498;2024-03-22T12:07:52;10.98;;;5.28;;
77202;SDS011;66327;50.096;8.498;2024-03-22T12:10:18;10.63;;;5.00;;
77202;SDS011;66327;50.096;8.498;2024-03-22T12:12:43;9.55;;;4.55;;
77202;SDS011;66327;50.096;8.498;2024-03-22T12:15:09;8.60;;;5.30;;
77202;SDS011;66327;50.096;8.498;2024-03-22T12:17:34;9.60;;;5.15;;
77202;SDS011;66327;50.096;8.498;2024-03-22T12:20:02;11.10;;;5.28;;
77202;SDS011;66327;50.096;8.498;2024-03-22T12:22:29;9.88;;;5.18;;
77202;SDS011;66327;50.096;8.498;2024-03-22T12:24:54;6.38;;;4.22;;
77202;SDS011;66327;50.096;8.498;2024-03-22T12:27:20;10.93;;;5.30;;
77202;SDS011;66327;50.096;8.498;2024-03-22T12:29:45;8.82;;;4.47;;
77202;SDS011;66327;50.096;8.498;2024-03-22T12:32:11;9.23;;;4.07;;
77202;SDS011;66327;50.096;8.498;2024-03-22T12:34:36;9.95;;;5.13;;
77202;SDS011;66327;50.096;8.498;2024-03-22T12:37:02;11.07;;;5.25;;
77202;SDS011;66327;50.096;8.498;2024-03-22T12:39:28;11.73;;;5.82;;
77202;SDS011;66327;50.096;8.498;2024-03-22T12:41:54;9.27;;;5.13;;
77202;SDS011;66327;50.096;8.498;2024-03-22T12:44:20;9.18;;;5.32;;
77202;SDS011;66327;50.096;8.498;2024-03-22T12:46:45;8.13;;;4.53;;
77202;SDS011;66327;50.096;8.498;2024-03-22T12:49:11;7.55;;;4.00;;
77202;SDS011;66327;50.096;8.498;2024-03-22T12:51:37;10.25;;;5.57;;
77202;SDS011;66327;50.096;8.498;2024-03-22T12:54:03;8.32;;;3.63;;
77202;SDS011;66327;50.096;8.498;2024-03-22T12:56:29;9.35;;;4.68;;
77202;SDS011;66327;50.096;8.498;2024-03-22T12:58:54;9.77;;;4.97;;
77202;SDS011;66327;50.096;8.498;2024-03-22T13:01:20;8.95;;;4.90;;
77202;SDS011;66327;50.096;8.498;2024-03-22T13:03:45;10.43;;;6.00;;
77202;SDS011;66327;50.096;8.498;2024-03-22T13:06:11;7.60;;;4.05;;
77202;SDS011;66327;50.096;8.498;2024-03-22T13:08:37;9.15;;;5.18;;
77202;SDS011;66327;50.096;8.498;2024-03-22T13:11:03;7.30;;;3.92;;
77202;SDS011;66327;50.096;8.498;2024-03-22T13:13:29;10.23;;;5.53;;
77202;SDS011;66327;50.096;8.498;2024-03-22T13:15:56;9.32;;;4.85;;
77202;SDS011;66327;50.096;8.498;2024-03-22T13:18:22;8.82;;;5.22;;
77202;SDS011;66327;50.096;8.498;2024-03-22T13:20:48;10.27;;;5.18;;
77202;SDS011;66327;50.096;8.498;2024-03-22T13:23:14;9.63;;;4.95;;
77202;SDS011;66327;50.096;8.498;2024-03-22T13:25:39;10.20;;;5.05;;
77202;SDS011;66327;50.096;8.498;2024-03-22T13:28:05;9.02;;;5.10;;
77202;SDS011;66327;50.096;8.498;2024-03-22T13:30:30;11.50;;;5.70;;
77202;SDS011;66327;50.096;8.498;2024-03-22T13:32:56;11.93;;;5.40;;
77202;SDS011;66327;50.096;8.498;2024-03-22T13:35:22;8.60;;;5.40;;
77202;SDS011;66327;50.096;8.498;2024-03-22T13:37:47;11.68;;;5.57;;
77202;SDS011;66327;50.096;8.498;2024-03-22T13:40:14;13.68;;;5.85;;
77202;SDS011;66327;50.096;8.498;2024-03-22T13:42:40;9.93;;;5.15;;
77202;SDS011;66327;50.096;8.498;2024-03-22T13:45:07;12.18;;;5.90;;
77202;SDS011;66327;50.096;8.498;2024-03-22T13:47:34;10.07;;;5.35;;
77202;SDS011;66327;50.096;8.498;2024-03-22T13:50:04;10.13;;;5.50;;
77202;SDS011;66327;50.096;8.498;2024-03-22T13:52:31;10.50;;;5.30;;
77202;SDS011;66327;50.096;8.498;2024-03-22T13:54:58;8.60;;;5.05;;
77202;SDS011;66327;50.096;8.498;2024-03-22T13:57:25;8.43;;;4.63;;
77202;SDS011;66327;50.096;8.498;2024-03-22T13:59:52;7.72;;;4.43;;
77202;SDS011;66327;50.096;8.498;2024-03-22T14:02:22;9.95;;;5.80;;
77202;SDS011;66327;50.096;8.498;2024-03-22T14:04:55;10.10;;;5.68;;
77202;SDS011;66327;50.096;8.498;2024-03-22T14:07:24;11.68;;;5.97;;
77202;SDS011;66327;50.096;8.498;2024-03-22T14:09:57;12.15;;;5.80;;
77202;SDS011;66327;50.096;8.498;2024-03-22T14:12:30;11.95;;;5.78;;
77202;SDS011;66327;50.096;8.498;2024-03-22T14:15:01;11.02;;;5.82;;
77202;SDS011;66327;50.096;8.498;2024-03-22T14:17:27;16.67;;;6.03;;
77202;SDS011;66327;50.096;8.498;2024-03-22T14:19:59;10.85;;;6.40;;
77202;SDS011;66327;50.096;8.498;2024-03-22T14:22:29;11.02;;;6.10;;
77202;SDS011;66327;50.096;8.498;2024-03-22T14:25:01;10.98;;;6.50;;
77202;SDS011;66327;50.096;8.498;2024-03-22T14:27:33;11.43;;;6.60;;
77202;SDS011;66327;50.096;8.498;2024-03-22T14:30:18;10.15;;;6.00;;
77202;SDS011;66327;50.096;8.498;2024-03-22T14:32:53;11.45;;;6.03;;
77202;SDS011;66327;50.096;8.498;2024-03-22T14:35:24;9.35;;;4.70;;